Time;durP1;ratioP1;P1;durP2;ratioP2;P2;SDS_P1;SDS_P2;PMS_P1;PMS_P2;Temp;Humidity;BMP_temperature;BMP_pressure;BME280_temperature;BME280_humidity;BME280_pressure;Samples;Min_cycle;Max_cycle;Signal;HPM_P1;HPM_P2
2021/03/17 00:01:20;;;;;;;;;;;;;;;;;;;;;
2021/03/17 00:03:46;;;;;;;26.03;17.13;;;;;;;3.41;65.74;99397.38;1806698;77;23000;-89
2021/03/17 00:06:39;;;;;;;22.97;17.60;;;;;;;3.33;65.56;99391.63;1790800;80;21662;-88
2021/03/17 00:09:25;;;;;;;30.67;17.23;;;;;;;3.23;65.88;99387.84;1794967;79;21175;-88
2021/03/17 00:12:20;;;;;;;27.87;17.83;;;;;;;3.15;65.98;99385.21;1764727;78;21834;-89
2021/03/17 00:15:07;;;;;;;29.53;16.63;;;;;;;3.15;66.21;99385.21;1701016;83;21113;-88
2021/03/17 00:17:56;;;;;;;24.17;15.90;;;;;;;3.29;66.06;99381.09;1669965;84;21195;-87
2021/03/17 00:20:44;;;;;;;19.77;15.23;;;;;;;3.28;65.88;99377.64;1690202;82;21190;-88
2021/03/17 00:23:36;;;;;;;23.93;16.37;;;;;;;3.24;66.12;99385.55;1692184;81;21254;-90
2021/03/17 00:26:28;;;;;;;25.13;17.43;;;;;;;3.24;66.14;99373.70;1684719;85;21325;-91
2021/03/17 00:29:15;;;;;;;28.37;17.70;;;;;;;3.25;66.12;99375.33;1678476;84;21185;-89
2021/03/17 00:32:08;;;;;;;22.43;15.83;;;;;;;3.26;66.11;99369.59;1681503;84;21324;-92
2021/03/17 00:35:02;;;;;;;25.20;17.07;;;;;;;3.27;66.10;99381.25;1684830;83;21207;-88
2021/03/17 00:37:50;;;;;;;21.33;13.83;;;;;;;3.19;65.88;99377.31;1699671;83;21381;-88
2021/03/17 00:40:37;;;;;;;22.53;14.53;;;;;;;3.21;65.83;99372.70;1706922;82;21172;-87
2021/03/17 00:43:23;;;;;;;20.60;15.00;;;;;;;3.34;65.68;99377.98;1710181;82;21233;-87
2021/03/17 00:46:08;;;;;;;23.90;14.77;;;;;;;3.35;65.69;99380.42;1696168;82;21105;-87
2021/03/17 00:48:36;;;;;;;18.83;14.20;;;;;;;3.30;65.85;99383.56;1695699;83;21195;-87
2021/03/17 00:51:20;;;;;;;29.50;15.63;;;;;;;3.27;65.96;99383.07;1696640;83;21201;-88
2021/03/17 00:54:59;;;;;;;20.73;15.70;;;;;;;3.29;66.01;99374.51;1814511;77;22399;-86
2021/03/17 00:57:49;;;;;;;19.62;14.55;;;;;;;3.22;66.17;99391.48;1752765;80;21398;-87
2021/03/17 01:00:20;;;;;;;24.17;14.30;;;;;;;3.17;65.78;99388.50;1742232;81;21678;-88
2021/03/17 01:02:51;;;;;;;19.27;14.20;;;;;;;3.13;65.95;99377.97;1705881;81;21179;-87
2021/03/17 01:05:19;;;;;;;25.47;14.10;;;;;;;3.15;65.92;99387.84;1683479;82;21151;-87
2021/03/17 01:07:46;;;;;;;19.27;13.67;;;;;;;3.27;65.64;99369.90;1746962;81;21760;-87
2021/03/17 01:10:26;;;;;;;18.83;14.10;;;;;;;3.27;65.67;99380.44;1710301;81;21212;-87
2021/03/17 01:13:19;;;;;;;25.77;16.23;;;;;;;3.25;65.84;99366.11;1722675;78;23105;-87
2021/03/17 01:15:49;;;;;;;24.53;14.07;;;;;;;3.20;65.92;99376.34;1704009;82;21782;-87
2021/03/17 01:18:17;;;;;;;24.80;15.27;;;;;;;3.18;65.96;99367.75;1706168;81;21545;-86
2021/03/17 01:20:45;;;;;;;17.83;15.00;;;;;;;3.18;66.01;99362.98;1735476;80;21393;-86
2021/03/17 01:23:12;;;;;;;26.70;15.43;;;;;;;3.15;66.07;99373.36;1735233;80;21103;-86
2021/03/17 01:25:43;;;;;;;23.27;15.80;;;;;;;3.14;66.13;99364.30;1726839;81;21235;-85
2021/03/17 01:28:13;;;;;;;23.60;14.07;;;;;;;3.21;66.10;99363.48;1735975;81;21144;-87
2021/03/17 01:30:45;;;;;;;19.40;14.60;;;;;;;3.36;65.71;99363.64;1741233;81;21178;-87
2021/03/17 01:33:14;;;;;;;23.10;14.50;;;;;;;3.35;65.57;99366.44;1738007;80;22127;-86
2021/03/17 01:35:47;;;;;;;21.60;14.03;;;;;;;3.31;65.66;99365.47;1739131;81;21175;-88
2021/03/17 01:38:15;;;;;;;24.47;15.17;;;;;;;3.29;65.78;99358.70;1735765;81;21328;-88
2021/03/17 01:40:44;;;;;;;28.37;16.67;;;;;;;3.29;65.84;99357.39;1732014;81;21209;-86
2021/03/17 01:43:23;;;;;;;;;;;;;;;;;;;;;
2021/03/17 01:45:57;;;;;;;22.20;15.80;;;;;;;3.29;65.68;99362.66;1732218;78;23037;-86
2021/03/17 01:48:25;;;;;;;23.53;14.67;;;;;;;3.19;65.50;99357.56;1697120;83;21140;-87
2021/03/17 01:50:59;;;;;;;21.73;14.53;;;;;;;3.15;65.32;99354.11;1683230;83;21170;-90
2021/03/17 01:53:47;;;;;;;20.70;14.57;;;;;;;3.24;65.18;99360.53;1704120;83;21874;-91
2021/03/17 01:56:12;;;;;;;19.90;13.50;;;;;;;3.30;65.08;99358.55;1659878;84;21221;-90
2021/03/17 01:58:45;;;;;;;24.63;15.60;;;;;;;3.25;65.20;99354.76;1660718;84;21178;-89
2021/03/17 02:04:33;;;;;;;22.50;16.03;;;;;;;3.24;65.46;99351.78;1771145;78;24755;-90
2021/03/17 02:07:09;;;;;;;25.83;14.67;;;;;;;3.09;65.58;99337.16;1703761;82;21197;-90
2021/03/17 02:09:41;;;;;;;21.07;14.97;;;;;;;3.14;65.53;99357.72;1678839;82;21467;-91
2021/03/17 03:17:38;;;;;;;25.20;15.43;;;;;;;2.96;65.25;99343.38;1742332;78;21172;-90
2021/03/17 03:33:37;;;;;;;24.47;14.87;;;;;;;2.83;66.05;99335.99;1697951;76;21044;-91
2021/03/17 03:47:20;;;;;;;22.52;17.65;;;;;;;2.65;66.39;99334.80;1740128;77;28540;-90
2021/03/17 03:50:10;;;;;;;20.80;15.47;;;;;;;2.77;66.14;99335.30;1654989;83;21195;-87
2021/03/17 03:53:27;;;;;;;;;;;;;;;;;;;;;
2021/03/17 04:17:57;;;;;;;18.17;14.10;;;;;;;4.13;62.32;99309.09;1762136;79;23026;-90
2021/03/17 05:56:46;;;;;;;13.93;11.13;;;;;;;3.21;64.36;99317.89;1734018;79;22222;-90
2021/03/17 05:59:22;;;;;;;17.67;13.03;;;;;;;3.22;64.37;99322.16;1787375;77;28793;-87
2021/03/17 06:01:50;;;;;;;14.80;12.00;;;;;;;3.38;63.93;99330.56;1655480;82;21164;-89
2021/03/17 06:04:20;;;;;;;16.63;11.50;;;;;;;3.52;63.32;99324.59;1609395;88;21227;-88
2021/03/17 06:06:51;;;;;;;17.23;10.37;;;;;;;3.44;63.43;99329.87;1631715;86;21242;-88
2021/03/17 06:09:20;;;;;;;14.80;12.07;;;;;;;3.38;63.61;99329.23;1631985;86;21411;-89
2021/03/17 06:11:53;;;;;;;19.60;12.63;;;;;;;2.85;63.74;99237.95;1632700;87;21209;-88
2021/03/17 06:14:24;;;;;;;16.77;10.73;;;;;;;3.38;63.79;99320.02;1629517;86;21241;-88
2021/03/17 06:17:00;;;;;;;18.40;12.20;;;;;;;3.36;63.51;99324.13;1658628;85;21200;-88
2021/03/17 06:19:34;;;;;;;25.97;11.00;;;;;;;3.34;63.57;99332.70;1652173;86;21245;-91
2021/03/17 06:22:43;;;;;;;18.23;12.53;;;;;;;3.36;63.81;99329.91;1790698;77;22351;-89
2021/03/17 06:25:16;;;;;;;17.03;11.20;;;;;;;3.34;63.61;99318.72;1688189;83;21317;-90
2021/03/17 06:27:47;;;;;;;16.53;11.20;;;;;;;3.33;63.60;99324.95;1683079;84;21245;-90
2021/03/17 06:30:16;;;;;;;17.40;11.13;;;;;;;3.36;63.68;99324.64;1661815;84;21409;-87
2021/03/17 06:32:43;;;;;;;20.93;10.73;;;;;;;3.50;63.33;99321.30;1656846;85;21160;-85
2021/03/17 06:35:24;;;;;;;18.10;11.20;;;;;;;3.57;63.15;99317.52;1655413;85;21482;-86
2021/03/17 06:37:54;;;;;;;17.20;10.03;;;;;;;3.57;63.12;99317.02;1681539;84;21242;-85
2021/03/17 06:40:37;;;;;;;16.33;10.60;;;;;;;3.54;62.98;99318.66;1691349;83;21184;-86
2021/03/17 06:43:10;;;;;;;14.00;10.73;;;;;;;3.52;62.91;99314.05;1673359;83;21357;-85
2021/03/17 06:45:48;;;;;;;16.87;11.40;;;;;;;3.51;63.09;99311.92;1674413;84;21132;-84
2021/03/17 06:48:30;;;;;;;15.50;10.90;;;;;;;3.50;63.08;99314.24;1665235;85;21176;-86
2021/03/17 06:51:19;;;;;;;13.80;11.13;;;;;;;3.50;63.08;99312.92;1661234;84;21231;-86
2021/03/17 06:53:54;;;;;;;21.90;12.23;;;;;;;3.50;63.04;99313.40;1658528;84;21240;-87
2021/03/17 06:56:30;;;;;;;17.97;11.93;;;;;;;3.51;63.07;99319.82;1677639;83;21104;-89
2021/03/17 06:59:07;;;;;;;12.30;10.50;;;;;;;3.57;63.08;99320.16;1680235;83;21206;-90
2021/03/17 07:01:49;;;;;;;15.37;9.87;;;;;;;3.59;62.90;99307.13;1691633;81;21159;-90
2021/03/17 07:04:25;;;;;;;20.93;11.97;;;;;;;3.63;62.77;99322.11;1650273;85;21180;-87
2021/03/17 07:07:05;;;;;;;22.13;11.83;;;;;;;3.62;62.59;99318.66;1679275;84;21763;-92
2021/03/17 07:09:33;;;;;;;16.33;11.27;;;;;;;3.61;62.56;99321.45;1676009;85;21191;-88
2021/03/17 07:12:11;;;;;;;12.70;11.03;;;;;;;3.61;62.66;99315.68;1652572;86;21832;-87
2021/03/17 07:14:41;;;;;;;18.97;11.67;;;;;;;3.63;62.62;99320.28;1666394;84;21179;-87
2021/03/17 07:17:31;;;;;;;17.27;12.97;;;;;;;3.67;62.49;99318.98;1653888;85;22049;-86
2021/03/17 07:19:59;;;;;;;18.90;11.90;;;;;;;3.70;62.37;99317.30;1665583;85;21366;-87
2021/03/17 07:22:28;;;;;;;12.83;10.10;;;;;;;3.69;62.55;99313.05;1658497;84;21060;-88
2021/03/17 07:25:02;;;;;;;15.90;11.83;;;;;;;3.82;62.17;99319.08;1654830;85;21188;-88
2021/03/17 07:27:32;;;;;;;22.83;12.37;;;;;;;3.89;62.19;99304.23;1686094;84;21306;-88
2021/03/17 07:30:08;;;;;;;15.53;12.10;;;;;;;3.90;62.24;99320.89;1669644;84;21188;-85
2021/03/17 07:33:01;;;;;;;21.45;12.45;;;;;;;3.92;62.32;99307.52;1644580;85;21327;-88
2021/03/17 07:35:36;;;;;;;15.53;11.30;;;;;;;3.94;62.10;99312.12;1650294;85;21302;-88
2021/03/17 07:38:12;;;;;;;15.00;12.13;;;;;;;3.93;62.11;99311.81;1667527;85;21161;-89
2021/03/17 07:40:45;;;;;;;16.30;10.93;;;;;;;3.95;62.35;99305.87;1697755;84;21164;-88
2021/03/17 07:43:17;;;;;;;18.43;13.20;;;;;;;4.00;62.48;99305.69;1662417;83;21749;-89
2021/03/17 07:45:45;;;;;;;25.90;13.50;;;;;;;4.04;62.44;99312.76;1672520;84;21106;-87
2021/03/17 07:48:13;;;;;;;20.47;13.87;;;;;;;3.96;62.61;99307.02;1692829;83;22004;-86
2021/03/17 07:50:43;;;;;;;14.43;10.70;;;;;;;4.00;62.66;99313.59;1692013;83;21719;-86
2021/03/17 07:53:19;;;;;;;14.43;10.33;;;;;;;4.09;62.53;99317.84;1678690;83;21214;-93
2021/03/17 07:55:54;;;;;;;18.50;13.43;;;;;;;4.08;62.75;99314.87;1663628;84;21058;-86
2021/03/17 07:58:23;;;;;;;15.73;11.37;;;;;;;4.07;62.57;99326.42;1643280;87;21237;-86
2021/03/17 08:00:53;;;;;;;20.53;11.87;;;;;;;4.04;62.76;99311.44;1639424;86;21117;-88
2021/03/17 08:03:22;;;;;;;17.03;12.73;;;;;;;4.02;63.14;99308.97;1622943;87;21730;-88
2021/03/17 08:05:51;;;;;;;17.80;12.87;;;;;;;4.01;63.01;99307.34;1649748;85;21188;-86
2021/03/17 08:08:20;;;;;;;26.27;15.10;;;;;;;3.97;63.00;99306.02;1634034;86;21860;-87
2021/03/17 08:10:50;;;;;;;16.27;12.07;;;;;;;3.95;63.02;99303.23;1649213;85;21295;-87
2021/03/17 08:13:19;;;;;;;16.43;11.87;;;;;;;3.91;63.00;99318.56;1659731;85;21111;-86
2021/03/17 08:15:48;;;;;;;16.50;11.80;;;;;;;3.94;63.00;99310.80;1657334;86;21168;-88
2021/03/17 08:18:36;;;;;;;20.10;11.73;;;;;;;4.05;62.86;99308.63;1625428;87;21237;-89
2021/03/17 08:21:04;;;;;;;35.17;12.30;;;;;;;4.03;62.64;99309.31;1651464;85;21207;-87
2021/03/17 08:23:45;;;;;;;17.27;13.13;;;;;;;4.02;62.84;99308.97;1640629;85;21579;-87
2021/03/17 08:26:26;;;;;;;14.83;11.40;;;;;;;4.08;62.83;99310.09;1665972;84;21176;-86
2021/03/17 08:28:56;;;;;;;18.50;12.60;;;;;;;4.12;62.68;99317.98;1654218;86;21677;-86
2021/03/17 08:31:41;;;;;;;17.67;12.57;;;;;;;4.10;62.72;99308.92;1636882;86;21338;-86
2021/03/17 08:34:23;;;;;;;31.27;14.43;;;;;;;4.13;62.64;99306.96;1652971;84;21136;-88
2021/03/17 08:37:02;;;;;;;17.00;12.23;;;;;;;4.16;62.67;99309.23;1635170;87;21336;-86
2021/03/17 08:39:36;;;;;;;17.50;13.07;;;;;;;4.16;62.60;99300.00;1634337;86;21335;-88
2021/03/17 08:42:08;;;;;;;18.97;12.70;;;;;;;4.19;62.57;99298.36;1659670;84;21421;-87
2021/03/17 08:44:45;;;;;;;22.30;12.70;;;;;;;4.24;62.22;99302.63;1652476;84;21287;-91
2021/03/17 08:47:17;;;;;;;21.67;13.13;;;;;;;4.29;62.11;99305.55;1656983;85;21195;-86
2021/03/17 08:49:52;;;;;;;14.27;10.80;;;;;;;4.40;61.94;99307.79;1649510;85;21310;-88
2021/03/17 08:52:22;;;;;;;21.70;13.63;;;;;;;4.49;61.54;99305.43;1655672;85;21213;-88
2021/03/17 08:54:55;;;;;;;18.10;12.27;;;;;;;4.47;61.60;99308.74;1655066;85;21192;-88
2021/03/17 08:57:24;;;;;;;15.13;11.90;;;;;;;4.47;61.48;99308.74;1642566;85;21222;-90
2021/03/17 09:00:00;;;;;;;22.03;11.77;;;;;;;4.48;61.46;99305.59;1663556;84;21305;-88
2021/03/17 09:02:33;;;;;;;17.67;11.73;;;;;;;4.53;61.27;99304.59;1670360;85;21637;-87
2021/03/17 09:05:22;;;;;;;18.03;12.43;;;;;;;4.56;61.19;99302.93;1668152;84;21733;-88
2021/03/17 09:08:09;;;;;;;20.57;12.33;;;;;;;4.61;60.88;99297.11;1640323;86;21262;-86
2021/03/17 09:10:47;;;;;;;17.17;12.67;;;;;;;4.63;60.81;99302.56;1644985;85;21192;-91
2021/03/17 09:13:19;;;;;;;;;;;;;;;4.66;60.64;99302.70;1655382;85;21096;-89
2021/03/17 09:18:25;;;;;;;16.20;10.47;;;;;;;4.79;60.05;99295.02;1774948;79;23205;-88
2021/03/17 09:20:55;;;;;;;18.23;12.17;;;;;;;4.83;59.63;99309.50;1747273;80;21745;-90
2021/03/17 09:23:31;;;;;;;15.60;11.00;;;;;;;4.88;59.36;99305.84;1703439;80;21165;-90
2021/03/17 09:25:57;;;;;;;18.23;10.87;;;;;;;4.74;59.56;99267.50;1669754;84;21431;-88
2021/03/17 09:31:18;;;;;;;17.90;11.03;;;;;;;5.13;58.87;99301.67;1758911;79;24421;-89
2021/03/17 09:33:45;;;;;;;19.00;12.17;;;;;;;5.09;58.83;99311.47;1717772;80;21527;-87
2021/03/17 09:36:25;;;;;;;17.03;10.37;;;;;;;5.06;58.66;99314.76;1665127;85;21250;-86
2021/03/17 09:38:55;;;;;;;19.67;10.67;;;;;;;5.05;58.35;99311.00;1667062;84;21205;-85
2021/03/17 09:41:27;;;;;;;12.27;9.77;;;;;;;5.03;58.33;99314.32;1665616;84;21223;-87
2021/03/17 09:44:03;;;;;;;15.37;9.93;;;;;;;5.04;58.51;99308.84;1665923;84;21317;-87
2021/03/17 09:46:37;;;;;;;17.77;10.50;;;;;;;5.10;58.38;99309.13;1666099;84;21952;-87
2021/03/17 09:49:09;;;;;;;18.60;9.80;;;;;;;5.17;58.35;99312.20;1669711;84;21371;-86
2021/03/17 09:51:41;;;;;;;13.43;8.60;;;;;;;5.24;58.12;99313.13;1667551;85;21209;-88
2021/03/17 09:54:13;;;;;;;9.17;7.30;;;;;;;5.25;58.30;99313.47;1664786;84;21704;-88
2021/03/17 09:56:50;;;;;;;12.73;9.73;;;;;;;5.28;58.63;99316.75;1638269;86;21101;-87
2021/03/17 09:59:38;;;;;;;20.77;9.57;;;;;;;5.30;58.88;99314.75;1634525;86;21359;-88
2021/03/17 10:02:14;;;;;;;11.08;7.30;;;;;;;5.34;59.00;99309.42;1662895;84;21037;-88
2021/03/17 10:04:49;;;;;;;11.30;7.27;;;;;;;5.33;59.32;99310.41;1662975;84;21180;-88
2021/03/17 10:07:21;;;;;;;12.93;8.00;;;;;;;5.30;59.27;99308.14;1669862;85;21335;-87
2021/03/17 10:09:51;;;;;;;10.30;8.03;;;;;;;5.24;59.30;99306.53;1665164;84;21203;-87
2021/03/17 10:12:35;;;;;;;14.90;8.23;;;;;;;5.29;59.13;99307.30;1770537;77;23193;-88
2021/03/17 10:15:10;;;;;;;10.77;7.67;;;;;;;5.26;59.24;99299.24;1755774;81;21335;-87
2021/03/17 10:17:40;;;;;;;11.40;7.97;;;;;;;5.33;59.36;99307.29;1764576;80;21196;-87
2021/03/17 10:20:15;;;;;;;14.47;9.53;;;;;;;5.36;58.84;99306.09;1754617;80;21507;-88
2021/03/17 10:22:46;;;;;;;13.90;8.50;;;;;;;5.35;58.87;99296.03;1743446;80;21140;-87
2021/03/17 10:25:17;;;;;;;12.83;7.93;;;;;;;5.37;58.71;99305.92;1717029;81;21719;-88
2021/03/17 10:27:53;;;;;;;13.33;9.03;;;;;;;5.35;58.71;99298.67;1683054;83;21172;-88
2021/03/17 10:30:37;;;;;;;11.38;8.43;;;;;;;5.34;58.90;99306.78;1658747;85;22233;-87
2021/03/17 10:33:16;;;;;;;11.47;7.60;;;;;;;5.32;58.89;99310.10;1680266;83;21928;-89
2021/03/17 10:35:47;;;;;;;13.60;7.17;;;;;;;5.32;58.90;99314.87;1657694;85;21207;-89
2021/03/17 10:38:16;;;;;;;14.03;7.57;;;;;;;5.31;58.68;99317.19;1635315;86;21242;-88
2021/03/17 10:40:48;;;;;;;11.00;7.13;;;;;;;5.24;58.90;99314.45;1647944;85;21810;-87
2021/03/17 10:43:15;;;;;;;13.63;8.23;;;;;;;5.20;59.11;99302.61;1636004;85;21219;-89
2021/03/17 10:45:55;;;;;;;14.47;7.27;;;;;;;5.19;59.32;99302.27;1655314;85;21251;-89
2021/03/17 10:48:25;;;;;;;10.57;7.47;;;;;;;5.19;59.33;99307.56;1650565;85;22621;-88
2021/03/17 10:50:54;;;;;;;10.37;6.23;;;;;;;5.23;59.16;99301.42;1629228;85;21245;-88
2021/03/17 10:53:29;;;;;;;8.50;6.03;;;;;;;5.23;58.81;99314.13;1651530;85;21217;-88
2021/03/17 10:56:01;;;;;;;12.23;7.23;;;;;;;5.21;58.92;99300.78;1653940;85;21613;-88
2021/03/17 10:58:31;;;;;;;10.00;6.47;;;;;;;5.17;58.79;99312.20;1666961;84;21338;-87
2021/03/17 11:01:01;;;;;;;12.40;6.97;;;;;;;5.15;58.57;99308.11;1664008;85;21058;-87
2021/03/17 11:03:35;;;;;;;12.23;6.93;;;;;;;5.08;58.50;99309.30;1682211;84;21325;-87
2021/03/17 11:06:22;;;;;;;10.93;7.03;;;;;;;5.06;58.96;99300.74;1683362;85;21154;-87
2021/03/17 11:09:06;;;;;;;13.87;7.47;;;;;;;5.05;58.45;99299.92;1681806;85;21647;-88
2021/03/17 11:11:53;;;;;;;11.17;6.13;;;;;;;5.07;58.66;99293.16;1667263;84;21283;-88
2021/03/17 11:14:34;;;;;;;12.33;6.67;;;;;;;5.13;58.61;99285.02;1613827;87;21184;-85
2021/03/17 11:17:09;;;;;;;10.33;7.23;;;;;;;5.21;58.51;99293.66;1644296;85;21660;-88
2021/03/17 11:19:38;;;;;;;10.03;5.58;;;;;;;5.25;58.59;99291.02;1647337;85;21835;-90
2021/03/17 11:22:05;;;;;;;8.57;6.53;;;;;;;5.25;58.71;99295.45;1649379;85;21257;-88
2021/03/17 11:24:32;;;;;;;11.57;6.93;;;;;;;4.78;58.25;99215.98;1706251;82;21377;-88
2021/03/17 11:26:59;;;;;;;11.30;7.20;;;;;;;5.31;58.07;99295.23;1707189;82;21286;-87
2021/03/17 11:29:29;;;;;;;14.43;6.43;;;;;;;5.33;58.12;99298.04;1701028;82;21661;-90
2021/03/17 11:32:09;;;;;;;9.80;6.43;;;;;;;5.35;57.80;99305.77;1706522;82;21161;-89
2021/03/17 11:34:37;;;;;;;9.30;6.30;;;;;;;5.37;57.77;99303.76;1707016;82;21754;-87
2021/03/17 11:37:04;;;;;;;11.67;6.77;;;;;;;5.36;57.44;99298.17;1703483;82;21694;-87
2021/03/17 11:39:33;;;;;;;11.97;5.67;;;;;;;5.33;57.49;99294.55;1707263;82;21983;-87
2021/03/17 11:42:00;;;;;;;10.73;6.87;;;;;;;5.32;57.93;99294.25;1703927;82;21312;-86
2021/03/17 11:44:28;;;;;;;9.33;5.67;;;;;;;5.33;57.26;99306.45;1703100;82;21224;-89
2021/03/17 11:46:55;;;;;;;11.03;6.73;;;;;;;5.31;57.70;99293.91;1652806;85;21194;-88
2021/03/17 11:49:24;;;;;;;16.37;7.10;;;;;;;5.29;58.08;99290.63;1703881;82;21124;-89
2021/03/17 11:51:54;;;;;;;11.63;7.97;;;;;;;5.32;58.28;99285.81;1687255;84;21264;-87
2021/03/17 11:54:23;;;;;;;10.90;6.67;;;;;;;5.34;58.56;99297.02;1701916;83;21323;-87
2021/03/17 11:56:50;;;;;;;14.73;5.97;;;;;;;5.41;58.33;99298.45;1707424;82;21183;-88
2021/03/17 11:59:18;;;;;;;8.30;5.87;;;;;;;5.39;58.00;99299.95;1706146;83;21158;-88
2021/03/17 12:01:46;;;;;;;9.30;5.83;;;;;;;5.36;57.43;99289.73;1702296;82;21296;-92
2021/03/17 12:04:13;;;;;;;10.70;6.23;;;;;;;5.37;57.30;99294.03;1701647;84;21173;-87
2021/03/17 12:06:41;;;;;;;10.53;5.93;;;;;;;5.40;57.47;99292.84;1683600;84;21903;-86
2021/03/17 12:09:12;;;;;;;11.43;6.33;;;;;;;5.40;57.33;99290.20;1704897;82;21172;-88
2021/03/17 12:11:42;;;;;;;10.23;5.87;;;;;;;5.38;57.43;99298.80;1688229;83;21156;-89
2021/03/17 12:14:10;;;;;;;12.17;6.53;;;;;;;5.37;57.34;99288.75;1720142;82;21175;-89
2021/03/17 12:16:40;;;;;;;8.20;6.43;;;;;;;5.37;57.43;99299.31;1722116;82;21244;-89
2021/03/17 12:19:11;;;;;;;16.40;9.27;;;;;;;5.40;57.43;99307.37;1723911;79;21212;-87
2021/03/17 12:35:27;;;;;;;9.90;6.40;;;;;;;5.25;58.46;99295.45;1680919;82;28115;-90
2021/03/17 12:48:51;;;;;;;12.00;6.60;;;;;;;5.04;58.47;99314.63;1772084;78;22758;-90
2021/03/17 12:51:58;;;;;;;16.33;6.53;;;;;;;4.99;58.55;99307.72;1789540;77;22762;-88
2021/03/17 12:54:27;;;;;;;10.47;6.27;;;;;;;4.94;58.53;99323.30;1803502;78;21633;-89
2021/03/17 12:57:00;;;;;;;14.17;5.87;;;;;;;4.94;58.57;99318.02;1720687;78;21161;-89
2021/03/17 12:59:50;;;;;;;9.93;6.33;;;;;;;4.95;58.59;99318.33;1730382;81;21172;-91
2021/03/17 13:11:16;;;;;;;17.80;5.97;;;;;;;4.95;59.14;99317.00;1735521;78;24542;-88
2021/03/17 13:13:48;;;;;;;12.63;6.00;;;;;;;4.93;59.14;99316.36;1675561;83;21301;-90
2021/03/17 13:16:21;;;;;;;13.23;5.83;;;;;;;4.97;59.17;99320.29;1658542;84;21257;-90
2021/03/17 13:18:54;;;;;;;10.13;5.97;;;;;;;5.02;59.05;99325.36;1692113;83;21333;-87
2021/03/17 13:21:26;;;;;;;12.50;6.17;;;;;;;5.05;58.82;99332.94;1687972;83;21205;-90
2021/03/17 13:24:01;;;;;;;11.03;5.53;;;;;;;5.05;58.63;99328.98;1655256;83;21137;-88
2021/03/17 13:26:34;;;;;;;15.43;9.17;;;;;;;4.82;58.75;99307.03;1662530;84;21257;-90
2021/03/17 13:29:06;;;;;;;10.33;5.67;;;;;;;4.96;58.73;99316.02;1693049;83;21195;-89
2021/03/17 13:31:37;;;;;;;15.50;5.90;;;;;;;5.06;58.93;99339.85;1685068;83;21783;-91
2021/03/17 13:34:05;;;;;;;13.13;6.37;;;;;;;5.08;59.07;99335.72;1679503;83;21131;-87
2021/03/17 13:36:34;;;;;;;11.17;5.37;;;;;;;5.12;59.10;99333.55;1685005;83;21223;-91
2021/03/17 13:39:06;;;;;;;13.47;5.97;;;;;;;5.14;59.08;99338.99;1663594;84;21195;-89
2021/03/17 13:41:50;;;;;;;;;;;;;;;;;;;;;
2021/03/17 13:44:29;;;;;;;;;;;;;;;;;;;;;
2021/03/17 13:47:26;;;;;;;13.57;6.17;;;;;;;4.98;59.07;99303.45;1769499;77;23113;-87
2021/03/17 13:50:12;;;;;;;12.93;6.37;;;;;;;5.19;59.23;99355.11;1754255;80;21441;-89
2021/03/17 13:52:39;;;;;;;8.17;6.10;;;;;;;5.18;59.33;99357.45;1762850;79;21188;-88
2021/03/17 13:55:13;;;;;;;7.47;5.07;;;;;;;5.17;59.53;99348.38;1761736;79;21180;-90
2021/03/17 13:57:44;;;;;;;15.00;7.62;;;;;;;5.15;59.63;99346.41;1716065;80;21221;-89
2021/03/17 14:00:15;;;;;;;10.30;4.97;;;;;;;5.14;59.92;99348.24;1700684;81;21371;-90
2021/03/17 14:02:47;;;;;;;9.73;5.83;;;;;;;5.22;59.91;99348.16;1710458;81;21639;-89
2021/03/17 14:05:28;;;;;;;;;;;;;;;;;;;;;
2021/03/17 14:08:15;;;;;;;;;;;;;;;;;;;;;
2021/03/17 14:11:02;;;;;;;14.37;6.60;;;;;;;5.41;59.94;99353.95;1781576;79;22454;-90
2021/03/17 14:13:36;;;;;;;17.70;6.63;;;;;;;5.40;60.06;99352.30;1787411;78;22529;-91
2021/03/17 14:29:32;;;;;;;15.20;9.93;;;;;;;5.01;61.78;99361.19;1767947;78;23706;-90
2021/03/17 14:45:40;;;;;;;10.97;7.07;;;;;;;4.95;62.27;99372.46;1750637;77;21816;-89
2021/03/17 14:48:49;;;;;;;13.53;6.17;;;;;;;4.96;62.34;99372.30;1789546;77;27894;-89
2021/03/17 14:51:22;;;;;;;21.60;6.83;;;;;;;4.81;62.19;99356.89;1753702;79;21171;-90
2021/03/17 14:53:56;;;;;;;12.97;5.70;;;;;;;4.94;62.22;99380.08;1728424;80;21185;-88
2021/03/17 14:56:26;;;;;;;16.37;7.80;;;;;;;4.93;62.08;99392.95;1720707;79;21247;-89
2021/03/17 14:59:13;;;;;;;15.35;7.58;;;;;;;4.93;62.14;99381.06;1714071;81;21823;-89
2021/03/17 15:01:42;;;;;;;16.33;7.73;;;;;;;4.90;62.16;99391.96;1710980;82;21199;-91
2021/03/17 15:04:55;;;;;;;;;;;;;;;;;;;;;
2021/03/17 15:07:55;;;;;;;14.83;6.27;;;;;;;3.94;62.20;99248.38;1619431;86;21240;-89
2021/03/17 15:10:58;;;;;;;18.07;6.33;;;;;;;4.88;62.43;99402.22;1761472;79;23462;-90
2021/03/17 15:13:36;;;;;;;;;;;;;;;;;;;;;
2021/03/17 15:38:28;;;;;;;;;;;;;;;;;;;;;
2021/03/17 16:04:42;;;;;;;16.73;7.73;;;;;;;4.58;63.56;99430.27;1715276;77;21340;-89
2021/03/17 16:07:32;;;;;;;19.87;9.37;;;;;;;4.66;63.45;99442.09;1675594;83;21215;-89
2021/03/17 16:39:12;;;;;;;;;;;;;;;;;;;;;
2021/03/17 16:57:40;;;;;;;12.30;5.10;;;;;;;4.59;64.54;99464.88;1741705;79;21312;-88
2021/03/17 17:00:29;;;;;;;10.47;5.53;;;;;;;4.47;64.22;99435.91;1716589;81;21109;-90
2021/03/17 17:16:41;;;;;;;;;;;;;;;;;;;;;
2021/03/17 17:19:19;;;;;;;;;;;;;;;4.55;64.13;99487.84;1691409;82;21376;-88
2021/03/17 17:43:49;;;;;;;15.97;9.20;;;;;;;4.46;63.77;99497.11;1699224;76;22575;-90
2021/03/17 17:46:23;;;;;;;15.77;8.67;;;;;;;4.37;63.89;99505.20;1641658;85;21595;-90
2021/03/17 17:49:02;;;;;;;18.80;10.50;;;;;;;4.43;63.96;99493.48;1768079;77;28707;-89
2021/03/17 18:30:49;;;;;;;27.23;12.67;;;;;;;4.45;64.59;99500.73;1782409;78;21238;-90
2021/03/17 18:33:42;;;;;;;19.30;12.57;;;;;;;4.61;64.18;99491.92;1767064;79;24943;-89
2021/03/17 18:36:10;;;;;;;21.97;11.10;;;;;;;4.55;64.16;99493.94;1741123;80;21204;-88
2021/03/17 18:38:40;;;;;;;25.17;13.13;;;;;;;4.52;64.17;99496.09;1717866;82;21604;-88
2021/03/17 18:41:10;;;;;;;22.20;12.90;;;;;;;4.46;64.29;99495.80;1716252;82;21209;-89
2021/03/17 18:43:40;;;;;;;28.97;14.70;;;;;;;4.41;64.47;99496.80;1700443;82;21374;-90
2021/03/17 18:46:10;;;;;;;26.97;13.87;;;;;;;4.38;64.56;99501.58;1658554;84;21277;-89
2021/03/17 18:48:39;;;;;;;22.70;13.00;;;;;;;3.26;64.50;99323.50;1673608;83;21223;-90
2021/03/17 18:51:15;;;;;;;18.73;10.50;;;;;;;4.40;64.49;99497.77;1683170;83;21883;-89
2021/03/17 18:53:51;;;;;;;30.62;12.00;;;;;;;4.54;64.21;99504.66;1681518;83;21294;-91
2021/03/17 18:56:28;;;;;;;16.90;9.10;;;;;;;4.66;63.71;99500.67;1669943;84;21692;-89
2021/03/17 18:59:03;;;;;;;22.03;11.20;;;;;;;4.63;63.52;99498.36;1691739;83;21345;-90
2021/03/17 19:01:34;;;;;;;24.43;11.30;;;;;;;4.13;63.57;99436.19;1702486;83;21186;-91
2021/03/17 19:04:10;;;;;;;20.73;10.50;;;;;;;4.54;63.65;99509.46;1701568;83;21218;-90
2021/03/17 19:06:55;;;;;;;;;;;;;;;;;;;;;
2021/03/17 20:53:21;;;;;;;14.67;5.70;;;;;;;4.64;59.79;99521.14;1730028;80;21244;-92
2021/03/17 20:55:51;;;;;;;15.97;5.80;;;;;;;4.62;59.88;99525.27;1676037;83;21268;-92
